Time;durP1;ratioP1;P1;durP2;ratioP2;P2;SDS_P1;SDS_P2;PMS_P1;PMS_P2;Temp;Humidity;BMP_temperature;BMP_pressure;BME280_temperature;BME280_humidity;BME280_pressure;Samples;Min_cycle;Max_cycle;Signal;HPM_P1;HPM_P2
2021/12/01 00:01:48;;;;;;;;;;;;;;;;;;5083614;28;19951;-68
2021/12/01 00:04:15;;;;;;;;;;;;;;;;;;5079026;28;19927;-67
2021/12/01 00:06:42;;;;;;;;;;;;;;;;;;5080955;28;19924;-67
2021/12/01 00:09:09;;;;;;;;;;;;;;;;;;5084728;28;20003;-67
2021/12/01 00:11:36;;;;;;;;;;;;;;;;;;5083464;28;20376;-67
2021/12/01 00:14:03;;;;;;;;;;;;;;;;;;5080445;28;19924;-66
2021/12/01 00:16:30;;;;;;;;;;;;;;;;;;5081707;28;19932;-66
2021/12/01 00:18:56;;;;;;;;;;;;;;;;;;5082478;28;19924;-68
2021/12/01 00:21:23;;;;;;;;;;;;;;;;;;5081416;28;19924;-66
2021/12/01 00:23:50;;;;;;;;;;;;;;;;;;5080424;28;19928;-68
2021/12/01 00:26:17;;;;;;;;;;;;;;;;;;5083061;28;19931;-67
2021/12/01 00:28:44;;;;;;;;;;;;;;;;;;5076855;28;19928;-67
2021/12/01 00:31:11;;;;;;;;;;;;;;;;;;5079118;28;19932;-67
2021/12/01 00:33:38;;;;;;;;;;;;;;;;;;5081512;28;19932;-67
2021/12/01 00:36:05;;;;;;;;;;;;;;;;;;5083591;28;19935;-67
2021/12/01 00:38:34;;;;;;;;;;;;;;;;;;5081906;28;20439;-68
2021/12/01 00:41:04;;;;;;;;;;;;;;;;;;5080549;28;19924;-67
2021/12/01 00:43:32;;;;;;;;;;;;;;;;;;5079011;28;19932;-67
2021/12/01 00:46:08;;;;;;;;;;;;;;;;;;5082100;28;19951;-68
2021/12/01 00:48:35;;;;;;;;;;;;;;;;;;5082975;28;20422;-67
2021/12/01 00:51:02;;;;;;;;;;;;;;;;;;5080945;28;19932;-68
2021/12/01 00:53:30;;;;;;;;;;;;;;;;;;5081390;28;19932;-67
2021/12/01 00:55:57;;;;;;;;;;;;;;;;;;5080208;28;20032;-67
2021/12/01 00:58:24;;;;;;;;;;;;;;;;;;5082061;28;19930;-67
2021/12/01 01:00:51;;;;;;;;;;;;;;;;;;5080243;28;19932;-67
2021/12/01 01:03:18;;;;;;;;;;;;;;;;;;5083708;28;20427;-67
2021/12/01 01:05:45;;;;;;;;;;;;;;;;;;5082580;28;20271;-68
2021/12/01 01:08:12;;;;;;;;;;;;;;;;;;5079962;28;19946;-66
2021/12/01 01:11:11;;;;;;;;;;;;;;;;;;5080034;28;19928;-67
2021/12/01 01:16:25;;;;;;;;;;;;;;;;;;5080932;28;19973;-67
2021/12/01 01:18:52;;;;;;;;;;;;;;;;;;5082018;28;19928;-67
2021/12/01 01:21:19;;;;;;;;;;;;;;;;;;5078253;28;20039;-67
2021/12/01 01:23:46;;;;;;;;;;;;;;;;;;5078941;28;19932;-68
2021/12/01 01:26:13;;;;;;;;;;;;;;;;;;5080085;28;20351;-66
2021/12/01 01:28:40;;;;;;;;;;;;;;;;;;5083025;28;19924;-72
2021/12/01 01:31:07;;;;;;;;;;;;;;;;;;5081502;28;19924;-67
2021/12/01 01:33:34;;;;;;;;;;;;;;;;;;5080427;28;19932;-67
2021/12/01 01:36:01;;;;;;;;;;;;;;;;;;5081637;28;19928;-67
2021/12/01 01:38:29;;;;;;;;;;;;;;;;;;5081883;28;19940;-67
2021/12/01 01:40:56;;;;;;;;;;;;;;;;;;5082578;28;19932;-67
2021/12/01 01:43:23;;;;;;;;;;;;;;;;;;5084142;28;20413;-67
2021/12/01 01:45:49;;;;;;;;;;;;;;;;;;5084903;28;19923;-68
2021/12/01 01:48:17;;;;;;;;;;;;;;;;;;5083803;28;19935;-68
2021/12/01 01:50:44;;;;;;;;;;;;;;;;;;5060268;22;19929;-64
2021/12/01 01:53:11;;;;;;;;;;;;;;;;;;5042518;28;20403;-63
2021/12/01 01:55:38;;;;;;;;;;;;;;;;;;5041344;28;20291;-64
2021/12/01 01:58:05;;;;;;;;;;;;;;;;;;5042801;28;19925;-65
2021/12/01 02:00:35;;;;;;;;;;;;;;;;;;5040989;28;20007;-64
2021/12/01 02:03:02;;;;;;;;;;;;;;;;;;5041357;28;19925;-64
2021/12/01 02:05:29;;;;;;;;;;;;;;;;;;5040549;28;19940;-64
2021/12/01 02:07:57;;;;;;;;;;;;;;;;;;5039887;28;20034;-63
2021/12/01 02:10:24;;;;;;;;;;;;;;;;;;5042292;28;19929;-65
2021/12/01 02:12:51;;;;;;;;;;;;;;;;;;5040719;28;19972;-65
2021/12/01 02:15:18;;;;;;;;;;;;;;;;;;5040614;28;19947;-65
2021/12/01 02:17:45;;;;;;;;;;;;;;;;;;5041089;28;20051;-64
2021/12/01 02:20:12;;;;;;;;;;;;;;;;;;5042630;28;20423;-64
2021/12/01 02:22:38;;;;;;;;;;;;;;;;;;5041020;28;19943;-66
2021/12/01 02:25:05;;;;;;;;;;;;;;;;;;5042455;28;19925;-64
2021/12/01 02:27:32;;;;;;;;;;;;;;;;;;5040687;28;19940;-65
2021/12/01 02:29:59;;;;;;;;;;;;;;;;;;5044058;28;19956;-66
2021/12/01 02:32:26;;;;;;;;;;;;;;;;;;5037095;28;19933;-65
2021/12/01 02:34:53;;;;;;;;;;;;;;;;;;5038731;28;20023;-65
2021/12/01 02:37:21;;;;;;;;;;;;;;;;;;5041878;28;20774;-64
2021/12/01 02:39:48;;;;;;;;;;;;;;;;;;5044186;28;19928;-63
2021/12/01 02:42:15;;;;;;;;;;;;;;;;;;5043385;28;20000;-64
2021/12/01 02:44:42;;;;;;;;;;;;;;;;;;5042980;28;20400;-65
2021/12/01 02:47:09;;;;;;;;;;;;;;;;;;5044506;28;20157;-63
2021/12/01 02:49:36;;;;;;;;;;;;;;;;;;5042262;28;19925;-63
2021/12/01 02:52:03;;;;;;;;;;;;;;;;;;5041342;28;19947;-65
2021/12/01 02:54:30;;;;;;;;;;;;;;;;;;5046656;28;19924;-67
2021/12/01 02:56:57;;;;;;;;;;;;;;;;;;5046769;28;19940;-67
2021/12/01 02:59:24;;;;;;;;;;;;;;;;;;5046062;28;19924;-67
2021/12/01 03:01:51;;;;;;;;;;;;;;;;;;5045239;28;19928;-67
2021/12/01 03:04:18;;;;;;;;;;;;;;;;;;5041986;28;20006;-67
2021/12/01 03:06:45;;;;;;;;;;;;;;;;;;5045269;28;19928;-67
2021/12/01 03:09:14;;;;;;;;;;;;;;;;;;5045477;28;20561;-67
2021/12/01 03:11:41;;;;;;;;;;;;;;;;;;5044640;28;19964;-67
2021/12/01 03:14:08;;;;;;;;;;;;;;;;;;5041065;28;19933;-67
2021/12/01 03:16:35;;;;;;;;;;;;;;;;;;5043612;28;19939;-67
2021/12/01 03:19:02;;;;;;;;;;;;;;;;;;5044777;28;19952;-67
2021/12/01 03:21:28;;;;;;;;;;;;;;;;;;5041272;28;19932;-67
2021/12/01 03:23:55;;;;;;;;;;;;;;;;;;5044032;28;19925;-67
2021/12/01 03:26:22;;;;;;;;;;;;;;;;;;5045577;28;20031;-67
2021/12/01 03:28:49;;;;;;;;;;;;;;;;;;5045936;28;19932;-67
2021/12/01 03:31:16;;;;;;;;;;;;;;;;;;5044435;28;19929;-67
2021/12/01 03:33:43;;;;;;;;;;;;;;;;;;5044212;28;19926;-67
2021/12/01 03:36:10;;;;;;;;;;;;;;;;;;5040240;28;19924;-67
2021/12/01 03:38:37;;;;;;;;;;;;;;;;;;5040818;28;19947;-67
2021/12/01 03:41:04;;;;;;;;;;;;;;;;;;5040827;28;19929;-67
2021/12/01 03:43:32;;;;;;;;;;;;;;;;;;5040415;28;19928;-67
2021/12/01 03:45:59;;;;;;;;;;;;;;;;;;5048597;28;19929;-67
2021/12/01 03:48:26;;;;;;;;;;;;;;;;;;5047772;28;19948;-67
2021/12/01 03:50:54;;;;;;;;;;;;;;;;;;5046104;28;19932;-67
2021/12/01 03:53:21;;;;;;;;;;;;;;;;;;5042483;28;19958;-67
2021/12/01 03:55:48;;;;;;;;;;;;;;;;;;5042296;28;19924;-67
2021/12/01 03:58:15;;;;;;;;;;;;;;;;;;5043422;28;20148;-67
2021/12/01 04:00:42;;;;;;;;;;;;;;;;;;5041544;28;19929;-67
2021/12/01 04:03:09;;;;;;;;;;;;;;;;;;5042156;28;19928;-65
2021/12/01 04:05:36;;;;;;;;;;;;;;;;;;5042755;28;19932;-65
2021/12/01 04:08:03;;;;;;;;;;;;;;;;;;5041639;28;19932;-65
2021/12/01 04:10:30;;;;;;;;;;;;;;;;;;5039096;28;19928;-65
2021/12/01 04:12:57;;;;;;;;;;;;;;;;;;5040449;28;20404;-65
2021/12/01 04:15:24;;;;;;;;;;;;;;;;;;5040039;28;19932;-65
2021/12/01 04:17:51;;;;;;;;;;;;;;;;;;5041752;28;19928;-65
2021/12/01 04:20:18;;;;;;;;;;;;;;;;;;5042890;28;19963;-65
2021/12/01 04:22:45;;;;;;;;;;;;;;;;;;5041167;28;19932;-66
2021/12/01 04:25:12;;;;;;;;;;;;;;;;;;5040944;28;21818;-68
2021/12/01 04:27:39;;;;;;;;;;;;;;;;;;5038143;28;20389;-65
2021/12/01 04:30:06;;;;;;;;;;;;;;;;;;5037330;28;19933;-65
2021/12/01 04:32:33;;;;;;;;;;;;;;;;;;5041274;28;19931;-66
2021/12/01 04:35:01;;;;;;;;;;;;;;;;;;5042004;28;20297;-65
2021/12/01 04:37:28;;;;;;;;;;;;;;;;;;5040434;28;19960;-65
2021/12/01 04:39:55;;;;;;;;;;;;;;;;;;5040926;28;20393;-64
2021/12/01 04:42:22;;;;;;;;;;;;;;;;;;5042152;28;20380;-65
2021/12/01 04:44:49;;;;;;;;;;;;;;;;;;5040742;28;20001;-65
2021/12/01 04:47:18;;;;;;;;;;;;;;;;;;5040917;28;19924;-65
2021/12/01 04:49:45;;;;;;;;;;;;;;;;;;5042577;28;19968;-64
2021/12/01 04:52:12;;;;;;;;;;;;;;;;;;5040909;28;19940;-64
2021/12/01 04:54:39;;;;;;;;;;;;;;;;;;5039422;28;19931;-63
2021/12/01 04:57:06;;;;;;;;;;;;;;;;;;5041377;28;19974;-63
2021/12/01 04:59:33;;;;;;;;;;;;;;;;;;5038916;28;19929;-63
2021/12/01 05:02:01;;;;;;;;;;;;;;;;;;5039025;28;19975;-64
2021/12/01 05:04:28;;;;;;;;;;;;;;;;;;5040035;28;19931;-63
2021/12/01 05:06:55;;;;;;;;;;;;;;;;;;5040168;28;19932;-63
2021/12/01 05:09:22;;;;;;;;;;;;;;;;;;5041888;28;20038;-63
2021/12/01 05:11:49;;;;;;;;;;;;;;;;;;5039817;28;19931;-62
2021/12/01 05:14:16;;;;;;;;;;;;;;;;;;5037972;28;20502;-64
2021/12/01 05:16:43;;;;;;;;;;;;;;;;;;5042390;28;20428;-62
2021/12/01 05:19:11;;;;;;;;;;;;;;;;;;5039984;28;19932;-63
2021/12/01 05:21:38;;;;;;;;;;;;;;;;;;5039599;28;19940;-64
2021/12/01 05:24:04;;;;;;;;;;;;;;;;;;5038952;28;20288;-63
2021/12/01 05:26:31;;;;;;;;;;;;;;;;;;5040201;28;20300;-63
2021/12/01 05:28:58;;;;;;;;;;;;;;;;;;5038396;28;19925;-63
2021/12/01 05:31:25;;;;;;;;;;;;;;;;;;5039062;28;19931;-62
2021/12/01 05:33:52;;;;;;;;;;;;;;;;;;5040776;28;19935;-64
2021/12/01 05:36:19;;;;;;;;;;;;;;;;;;5052974;28;19925;-64
2021/12/01 05:38:46;;;;;;;;;;;;;;;;;;5050904;28;19924;-64
2021/12/01 05:41:13;;;;;;;;;;;;;;;;;;5050052;28;20964;-63
2021/12/01 05:43:40;;;;;;;;;;;;;;;;;;5038809;28;19925;-65
2021/12/01 05:46:07;;;;;;;;;;;;;;;;;;5044565;28;19925;-63
2021/12/01 05:48:34;;;;;;;;;;;;;;;;;;5038636;28;19937;-65
2021/12/01 05:51:01;;;;;;;;;;;;;;;;;;5035734;28;19925;-64
2021/12/01 05:53:28;;;;;;;;;;;;;;;;;;5044996;28;19931;-65
2021/12/01 05:55:55;;;;;;;;;;;;;;;;;;5040375;28;19925;-64
2021/12/01 05:58:22;;;;;;;;;;;;;;;;;;5044397;28;19925;-64
2021/12/01 06:00:49;;;;;;;;;;;;;;;;;;5040583;28;20060;-64
2021/12/01 06:03:16;;;;;;;;;;;;;;;;;;5038964;28;20324;-64
2021/12/01 06:05:44;;;;;;;;;;;;;;;;;;5039144;28;19933;-64
2021/12/01 06:08:11;;;;;;;;;;;;;;;;;;5038670;28;20309;-64
2021/12/01 06:10:38;;;;;;;;;;;;;;;;;;5039486;28;20011;-64
2021/12/01 06:13:05;;;;;;;;;;;;;;;;;;5043000;28;20308;-64
2021/12/01 06:15:32;;;;;;;;;;;;;;;;;;5043839;28;19925;-64
2021/12/01 06:17:59;;;;;;;;;;;;;;;;;;5042126;28;20312;-64
2021/12/01 06:20:26;;;;;;;;;;;;;;;;;;5042659;28;19925;-64
2021/12/01 06:22:53;;;;;;;;;;;;;;;;;;5042376;28;20506;-64
2021/12/01 06:25:20;;;;;;;;;;;;;;;;;;5043693;28;19929;-64
2021/12/01 06:27:47;;;;;;;;;;;;;;;;;;5045700;28;19931;-64
2021/12/01 06:30:14;;;;;;;;;;;;;;;;;;5045523;28;19941;-64
2021/12/01 06:32:41;;;;;;;;;;;;;;;;;;5042704;28;20396;-66
2021/12/01 06:35:08;;;;;;;;;;;;;;;;;;5043968;28;19925;-64
2021/12/01 06:37:35;;;;;;;;;;;;;;;;;;5047633;28;19925;-64
2021/12/01 06:40:02;;;;;;;;;;;;;;;;;;5045409;28;19932;-65
2021/12/01 06:42:29;;;;;;;;;;;;;;;;;;5044090;28;19932;-65
2021/12/01 06:44:56;;;;;;;;;;;;;;;;;;5043982;28;19931;-64
2021/12/01 06:47:23;;;;;;;;;;;;;;;;;;5043693;28;19929;-63
2021/12/01 06:49:52;;;;;;;;;;;;;;;;;;5043634;28;19925;-64
2021/12/01 06:52:19;;;;;;;;;;;;;;;;;;5043791;28;19932;-65
2021/12/01 06:54:46;;;;;;;;;;;;;;;;;;5043655;28;20362;-63
2021/12/01 06:57:13;;;;;;;;;;;;;;;;;;5044302;28;19933;-66
2021/12/01 06:59:40;;;;;;;;;;;;;;;;;;5045431;28;19924;-64
2021/12/01 07:02:07;;;;;;;;;;;;;;;;;;5043610;28;20027;-64
2021/12/01 07:04:34;;;;;;;;;;;;;;;;;;5048222;28;19924;-64
2021/12/01 07:07:01;;;;;;;;;;;;;;;;;;5047836;28;19925;-64
2021/12/01 07:09:28;;;;;;;;;;;;;;;;;;5042162;28;19932;-63
2021/12/01 07:11:55;;;;;;;;;;;;;;;;;;5042240;28;20924;-64
2021/12/01 07:14:22;;;;;;;;;;;;;;;;;;5041842;28;19932;-64
2021/12/01 07:16:49;;;;;;;;;;;;;;;;;;5043267;28;19950;-65
2021/12/01 07:19:16;;;;;;;;;;;;;;;;;;5044000;28;19954;-64
2021/12/01 07:21:43;;;;;;;;;;;;;;;;;;5043342;28;19932;-66
2021/12/01 07:24:11;;;;;;;;;;;;;;;;;;5042200;28;19951;-65
2021/12/01 07:26:38;;;;;;;;;;;;;;;;;;5044955;28;20385;-65
2021/12/01 07:29:05;;;;;;;;;;;;;;;;;;5044810;28;19933;-64
2021/12/01 07:31:32;;;;;;;;;;;;;;;;;;5043003;28;19933;-65
2021/12/01 07:33:58;;;;;;;;;;;;;;;;;;5043831;28;19935;-64
2021/12/01 07:36:25;;;;;;;;;;;;;;;;;;5042474;28;19924;-65
2021/12/01 07:38:53;;;;;;;;;;;;;;;;;;5042404;28;19979;-64
2021/12/01 07:41:20;;;;;;;;;;;;;;;;;;5041667;28;19924;-66
2021/12/01 07:43:47;;;;;;;;;;;;;;;;;;5042293;28;19931;-67
2021/12/01 07:46:14;;;;;;;;;;;;;;;;;;5044320;28;20015;-65
2021/12/01 07:48:41;;;;;;;;;;;;;;;;;;5042639;28;19925;-64
2021/12/01 07:51:08;;;;;;;;;;;;;;;;;;5076924;22;20380;-67
2021/12/01 07:53:35;;;;;;;;;;;;;;;;;;5065972;28;19924;-67
2021/12/01 07:56:03;;;;;;;;;;;;;;;;;;5066024;28;19924;-66
2021/12/01 07:58:30;;;;;;;;;;;;;;;;;;5064771;28;20281;-67
2021/12/01 08:00:57;;;;;;;;;;;;;;;;;;5063777;28;19968;-67
2021/12/01 08:03:23;;;;;;;;;;;;;;;;;;5063300;28;19928;-66
2021/12/01 08:05:50;;;;;;;;;;;;;;;;;;5063536;28;19939;-67
2021/12/01 08:08:20;;;;;;;;;;;;;;;;;;5063586;28;19932;-67
2021/12/01 08:10:47;;;;;;;;;;;;;;;;;;5063899;28;19939;-70
2021/12/01 08:13:14;;;;;;;;;;;;;;;;;;5063718;28;19931;-66
2021/12/01 08:15:41;;;;;;;;;;;;;;;;;;5064130;28;19932;-66
2021/12/01 08:18:08;;;;;;;;;;;;;;;;;;5064696;28;19928;-66
2021/12/01 08:20:37;;;;;;;;;;;;;;;;;;5062347;28;19925;-67
2021/12/01 08:23:04;;;;;;;;;;;;;;;;;;5062273;28;19997;-66
2021/12/01 08:25:31;;;;;;;;;;;;;;;;;;5060732;28;19928;-68
2021/12/01 08:28:00;;;;;;;;;;;;;;;;;;5063763;28;19940;-67
2021/12/01 08:30:27;;;;;;;;;;;;;;;;;;5062327;28;19951;-68
2021/12/01 08:32:54;;;;;;;;;;;;;;;;;;5061946;28;20403;-66
2021/12/01 08:35:21;;;;;;;;;;;;;;;;;;5063173;28;19925;-67
2021/12/01 08:37:48;;;;;;;;;;;;;;;;;;5063110;28;20404;-67
2021/12/01 08:40:16;;;;;;;;;;;;;;;;;;5062941;28;20390;-68
2021/12/01 08:42:42;;;;;;;;;;;;;;;;;;5062893;28;19924;-68
2021/12/01 08:45:09;;;;;;;;;;;;;;;;;;5060408;28;19925;-66
2021/12/01 08:47:36;;;;;;;;;;;;;;;;;;5067896;28;19924;-66
2021/12/01 08:50:03;;;;;;;;;;;;;;;;;;5063209;28;21032;-67
2021/12/01 08:52:30;;;;;;;;;;;;;;;;;;5064646;28;19947;-67
2021/12/01 08:54:57;;;;;;;;;;;;;;;;;;5063263;28;19932;-66
2021/12/01 08:57:24;;;;;;;;;;;;;;;;;;5062314;28;19940;-67
2021/12/01 08:59:51;;;;;;;;;;;;;;;;;;5065859;28;20287;-66
2021/12/01 09:02:18;;;;;;;;;;;;;;;;;;5065224;28;19931;-67
2021/12/01 09:04:49;;;;;;;;;;;;;;;;;;5064465;28;19932;-68
2021/12/01 09:07:16;;;;;;;;;;;;;;;;;;5063509;28;19982;-67
2021/12/01 09:09:43;;;;;;;;;;;;;;;;;;5063745;28;19931;-67
2021/12/01 09:12:10;;;;;;;;;;;;;;;;;;5069191;28;19924;-66
2021/12/01 09:14:37;;;;;;;;;;;;;;;;;;5062823;28;19928;-67
2021/12/01 09:17:04;;;;;;;;;;;;;;;;;;5065235;28;19928;-67
2021/12/01 09:19:31;;;;;;;;;;;;;;;;;;5062970;28;19931;-66
2021/12/01 09:21:58;;;;;;;;;;;;;;;;;;5064967;28;19937;-67
2021/12/01 09:24:25;;;;;;;;;;;;;;;;;;5062744;28;19924;-67
2021/12/01 09:26:52;;;;;;;;;;;;;;;;;;5069273;28;20011;-67
2021/12/01 09:29:19;;;;;;;;;;;;;;;;;;5063546;28;19936;-67
2021/12/01 09:31:46;;;;;;;;;;;;;;;;;;5056459;28;19928;-67
2021/12/01 09:34:13;;;;;;;;;;;;;;;;;;5066984;28;19931;-68
2021/12/01 09:36:40;;;;;;;;;;;;;;;;;;5057656;28;19931;-67
2021/12/01 09:39:07;;;;;;;;;;;;;;;;;;5061926;28;19936;-67
2021/12/01 09:41:33;;;;;;;;;;;;;;;;;;5063610;28;20353;-65
2021/12/01 09:44:00;;;;;;;;;;;;;;;;;;5061380;28;19939;-68
2021/12/01 09:46:30;;;;;;;;;;;;;;;;;;5063935;28;19928;-67
2021/12/01 09:48:57;;;;;;;;;;;;;;;;;;5069058;28;19929;-68
2021/12/01 09:51:24;;;;;;;;;;;;;;;;;;5068524;28;20476;-66
2021/12/01 09:53:52;;;;;;;;;;;;;;;;;;5066589;28;19932;-66
2021/12/01 09:56:19;;;;;;;;;;;;;;;;;;5071737;28;20028;-66
2021/12/01 09:58:46;;;;;;;;;;;;;;;;;;5069335;28;20014;-67
2021/12/01 10:01:13;;;;;;;;;;;;;;;;;;5068094;28;19931;-67
2021/12/01 10:03:40;;;;;;;;;;;;;;;;;;5073706;28;19925;-66
2021/12/01 10:06:10;;;;;;;;;;;;;;;;;;5069139;28;19935;-66
2021/12/01 10:08:37;;;;;;;;;;;;;;;;;;5071364;28;19956;-67
2021/12/01 10:11:04;;;;;;;;;;;;;;;;;;5067531;28;19933;-68
2021/12/01 10:13:31;;;;;;;;;;;;;;;;;;5071789;28;19924;-67
2021/12/01 10:15:58;;;;;;;;;;;;;;;;;;5066432;28;19934;-67
2021/12/01 10:18:25;;;;;;;;;;;;;;;;;;5062372;28;19967;-68
2021/12/01 10:20:52;;;;;;;;;;;;;;;;;;5065295;28;19928;-68
2021/12/01 10:23:19;;;;;;;;;;;;;;;;;;5065151;28;20291;-66
2021/12/01 10:25:46;;;;;;;;;;;;;;;;;;5063830;28;19933;-69
2021/12/01 10:28:14;;;;;;;;;;;;;;;;;;5067033;28;19947;-68
2021/12/01 10:30:41;;;;;;;;;;;;;;;;;;5061806;28;19928;-69
2021/12/01 10:33:08;;;;;;;;;;;;;;;;;;5064170;28;19939;-69
2021/12/01 10:35:35;;;;;;;;;;;;;;;;;;5064320;28;20250;-69
2021/12/01 10:38:02;;;;;;;;;;;;;;;;;;5065223;28;19924;-67
2021/12/01 10:40:29;;;;;;;;;;;;;;;;;;5064421;28;19924;-67
2021/12/01 10:42:56;;;;;;;;;;;;;;;;;;5062980;28;20620;-67
2021/12/01 10:45:23;;;;;;;;;;;;;;;;;;5061614;28;19997;-68
2021/12/01 10:47:50;;;;;;;;;;;;;;;;;;5065974;28;20399;-67
2021/12/01 10:50:17;;;;;;;;;;;;;;;;;;5063902;28;20019;-66
2021/12/01 10:52:44;;;;;;;;;;;;;;;;;;5064702;28;19924;-69
2021/12/01 10:55:11;;;;;;;;;;;;;;;;;;5063332;28;19932;-67
2021/12/01 10:57:38;;;;;;;;;;;;;;;;;;5062646;28;20308;-66
2021/12/01 11:00:07;;;;;;;;;;;;;;;;;;5066880;28;19947;-68
2021/12/01 11:02:33;;;;;;;;;;;;;;;;;;5066797;28;19979;-68
2021/12/01 11:05:00;;;;;;;;;;;;;;;;;;5064213;28;19933;-67
2021/12/01 11:07:27;;;;;;;;;;;;;;;;;;5067210;28;19933;-67
2021/12/01 11:09:54;;;;;;;;;;;;;;;;;;5038354;28;19935;-68
2021/12/01 11:12:21;;;;;;;;;;;;;;;;;;5031123;28;20006;-67
2021/12/01 17:31:15;;;;;;;;;;;;;;;;;;4954262;22;1783127;-66
2021/12/01 17:33:42;;;;;;;;;;;;;;;;;;5015554;28;19936;-67
2021/12/01 17:36:09;;;;;;;;;;;;;;;;;;5011511;28;19960;-65
2021/12/01 17:38:36;;;;;;;;;;;;;;;;;;5008844;28;20434;-70
2021/12/01 17:41:03;;;;;;;;;;;;;;;;;;5005813;28;19924;-65
2021/12/01 17:43:30;;;;;;;;;;;;;;;;;;5014985;28;19932;-66
2021/12/01 17:45:59;;;;;;;;;;;;;;;;;;5010215;28;19929;-66
2021/12/01 17:48:26;;;;;;;;;;;;;;;;;;5004778;28;19933;-67
2021/12/01 17:50:53;;;;;;;;;;;;;;;;;;5007085;28;19931;-66
2021/12/01 17:53:20;;;;;;;;;;;;;;;;;;5012800;28;19931;-63
2021/12/01 17:55:47;;;;;;;;;;;;;;;;;;5011248;28;19932;-68
2021/12/01 17:58:14;;;;;;;;;;;;;;;;;;5015371;28;19972;-65
2021/12/01 18:00:40;;;;;;;;;;;;;;;;;;5011115;28;20491;-64
2021/12/01 18:03:09;;;;;;;;;;;;;;;;;;5008252;28;19929;-68
2021/12/01 18:05:38;;;;;;;;;;;;;;;;;;5002926;28;20019;-64
2021/12/01 18:08:07;;;;;;;;;;;;;;;;;;5007217;28;20015;-66
2021/12/01 18:10:34;;;;;;;;;;;;;;;;;;5009211;28;20455;-63
2021/12/01 18:13:01;;;;;;;;;;;;;;;;;;5017578;28;19933;-67
2021/12/01 18:15:28;;;;;;;;;;;;;;;;;;5013234;28;19926;-64
2021/12/01 18:17:55;;;;;;;;;;;;;;;;;;5008150;28;20021;-64
2021/12/01 18:20:22;;;;;;;;;;;;;;;;;;5007885;28;19940;-65
2021/12/01 18:22:49;;;;;;;;;;;;;;;;;;5006527;28;19937;-64
2021/12/01 18:25:16;;;;;;;;;;;;;;;;;;5009421;28;19930;-65
2021/12/01 18:27:43;;;;;;;;;;;;;;;;;;5015197;28;19929;-63
2021/12/01 18:30:12;;;;;;;;;;;;;;;;;;5016334;28;20300;-64
2021/12/01 18:32:39;;;;;;;;;;;;;;;;;;5030746;28;19940;-62
2021/12/01 18:35:06;;;;;;;;;;;;;;;;;;5035365;28;19983;-68
2021/12/01 18:37:33;;;;;;;;;;;;;;;;;;5031874;28;19932;-66
2021/12/01 18:40:00;;;;;;;;;;;;;;;;;;5034777;28;19931;-64
2021/12/01 18:42:27;;;;;;;;;;;;;;;;;;5032597;28;19929;-64
2021/12/01 18:44:54;;;;;;;;;;;;;;;;;;5038045;28;19932;-66
2021/12/01 18:47:21;;;;;;;;;;;;;;;;;;5040368;28;20019;-64
2021/12/01 18:49:48;;;;;;;;;;;;;;;;;;5030997;28;19987;-69
2021/12/01 18:52:15;;;;;;;;;;;;;;;;;;5031592;28;19964;-62
2021/12/01 18:54:42;;;;;;;;;;;;;;;;;;5037554;28;20282;-67
2021/12/01 18:57:09;;;;;;;;;;;;;;;;;;5033074;28;19932;-62
2021/12/01 18:59:36;;;;;;;;;;;;;;;;;;5035747;28;20406;-64
2021/12/01 19:02:03;;;;;;;;;;;;;;;;;;5039792;28;19932;-66
2021/12/01 19:04:30;;;;;;;;;;;;;;;;;;5032334;28;19925;-68
2021/12/01 19:06:57;;;;;;;;;;;;;;;;;;5032184;28;20297;-64
2021/12/01 19:09:25;;;;;;;;;;;;;;;;;;5035427;28;19925;-65
2021/12/01 19:11:52;;;;;;;;;;;;;;;;;;5034249;28;19932;-64
2021/12/01 19:14:19;;;;;;;;;;;;;;;;;;5031305;28;19945;-66
2021/12/01 19:16:48;;;;;;;;;;;;;;;;;;5033122;28;20406;-68
2021/12/01 19:19:15;;;;;;;;;;;;;;;;;;5033718;28;19929;-68
2021/12/01 19:21:42;;;;;;;;;;;;;;;;;;5035695;28;20444;-65
2021/12/01 19:24:09;;;;;;;;;;;;;;;;;;5031677;28;20017;-69
2021/12/01 19:26:36;;;;;;;;;;;;;;;;;;5030493;28;19999;-65
2021/12/01 19:29:03;;;;;;;;;;;;;;;;;;5035952;28;19981;-65
2021/12/01 19:31:30;;;;;;;;;;;;;;;;;;5033238;28;19925;-66
2021/12/01 19:33:57;;;;;;;;;;;;;;;;;;5026955;28;20038;-65
2021/12/01 19:36:24;;;;;;;;;;;;;;;;;;5026696;28;19926;-65
2021/12/01 19:38:51;;;;;;;;;;;;;;;;;;5035899;28;19933;-67
2021/12/01 19:41:18;;;;;;;;;;;;;;;;;;5027183;28;19935;-65
2021/12/01 19:43:45;;;;;;;;;;;;;;;;;;5027318;28;19925;-69
2021/12/01 19:46:12;;;;;;;;;;;;;;;;;;5027924;28;20024;-66
2021/12/01 19:48:39;;;;;;;;;;;;;;;;;;5028465;28;19929;-65
2021/12/01 19:51:06;;;;;;;;;;;;;;;;;;5025670;28;19933;-66
2021/12/01 19:53:33;;;;;;;;;;;;;;;;;;5005456;28;19925;-68
2021/12/01 19:56:00;;;;;;;;;;;;;;;;;;5030760;28;19976;-67
2021/12/01 19:58:28;;;;;;;;;;;;;;;;;;5012088;28;19983;-65
2021/12/01 20:00:55;;;;;;;;;;;;;;;;;;5036406;28;19971;-66
2021/12/01 20:03:23;;;;;;;;;;;;;;;;;;5030374;28;19929;-64
2021/12/01 20:05:50;;;;;;;;;;;;;;;;;;5034142;28;20017;-64
2021/12/01 20:08:17;;;;;;;;;;;;;;;;;;5030621;28;19936;-71
2021/12/01 20:10:44;;;;;;;;;;;;;;;;;;5029346;28;19925;-65
2021/12/01 20:13:11;;;;;;;;;;;;;;;;;;5029980;28;19937;-66
2021/12/01 20:15:38;;;;;;;;;;;;;;;;;;5030497;28;19972;-66
2021/12/01 20:18:05;;;;;;;;;;;;;;;;;;5027024;28;19932;-67
2021/12/01 20:20:32;;;;;;;;;;;;;;;;;;5028563;28;19929;-66
2021/12/01 20:23:00;;;;;;;;;;;;;;;;;;5026576;28;19936;-65
2021/12/01 20:25:27;;;;;;;;;;;;;;;;;;5030664;28;19932;-65
2021/12/01 20:27:54;;;;;;;;;;;;;;;;;;5034838;28;19929;-64
2021/12/01 20:30:21;;;;;;;;;;;;;;;;;;5027080;28;19925;-67
2021/12/01 20:32:48;;;;;;;;;;;;;;;;;;5027696;28;20413;-64
2021/12/01 20:35:15;;;;;;;;;;;;;;;;;;5025603;28;19925;-64
2021/12/01 20:37:42;;;;;;;;;;;;;;;;;;5024442;28;20036;-67
2021/12/01 20:40:09;;;;;;;;;;;;;;;;;;5025551;28;20350;-64
2021/12/01 20:42:36;;;;;;;;;;;;;;;;;;5026725;28;19990;-69
2021/12/01 20:45:05;;;;;;;;;;;;;;;;;;5026232;28;19925;-67
2021/12/01 20:47:55;;;;;;;;;;;;;;;;;;5028350;28;19972;-64
2021/12/01 20:53:09;;;;;;;;;;;;;;;;;;5027238;28;19960;-69
2021/12/01 20:55:50;;;;;;;;;;;;;;;;;;5029452;28;19924;-66
2021/12/01 20:58:18;;;;;;;;;;;;;;;;;;5025423;28;20395;-64
2021/12/01 21:03:32;;;;;;;;;;;;;;;;;;5028368;28;19935;-68
2021/12/01 21:06:00;;;;;;;;;;;;;;;;;;5034762;28;19929;-64
2021/12/01 21:08:29;;;;;;;;;;;;;;;;;;5041208;28;19994;-65
2021/12/01 21:10:59;;;;;;;;;;;;;;;;;;5031555;28;19929;-65
2021/12/01 21:13:29;;;;;;;;;;;;;;;;;;5042343;28;20376;-63
2021/12/01 21:15:56;;;;;;;;;;;;;;;;;;5035356;28;19928;-65
2021/12/01 21:18:23;;;;;;;;;;;;;;;;;;5028259;28;19931;-68
2021/12/01 21:20:50;;;;;;;;;;;;;;;;;;5034536;28;19935;-64
2021/12/01 21:23:17;;;;;;;;;;;;;;;;;;5036258;28;19926;-64
2021/12/01 21:25:44;;;;;;;;;;;;;;;;;;5032119;28;19965;-65
2021/12/01 21:28:11;;;;;;;;;;;;;;;;;;5033053;28;19926;-65
2021/12/01 21:30:38;;;;;;;;;;;;;;;;;;5031798;28;19929;-66
2021/12/01 21:33:05;;;;;;;;;;;;;;;;;;5037485;28;19925;-65
2021/12/01 21:35:32;;;;;;;;;;;;;;;;;;5028768;28;19936;-65
2021/12/01 21:37:59;;;;;;;;;;;;;;;;;;5029664;28;19925;-64
2021/12/01 21:40:26;;;;;;;;;;;;;;;;;;5032451;28;20000;-67
2021/12/01 21:42:53;;;;;;;;;;;;;;;;;;5032760;28;19925;-65
2021/12/01 21:45:20;;;;;;;;;;;;;;;;;;5031437;28;19963;-68
2021/12/01 21:47:47;;;;;;;;;;;;;;;;;;5028063;28;19932;-68
2021/12/01 21:50:14;;;;;;;;;;;;;;;;;;5029301;28;19932;-69
2021/12/01 21:52:41;;;;;;;;;;;;;;;;;;5026341;28;20012;-65
2021/12/01 21:55:08;;;;;;;;;;;;;;;;;;5035172;28;19956;-64
2021/12/01 21:57:35;;;;;;;;;;;;;;;;;;5031920;28;19933;-66
2021/12/01 22:00:02;;;;;;;;;;;;;;;;;;5035990;28;19935;-64
2021/12/01 22:02:29;;;;;;;;;;;;;;;;;;5029058;28;19925;-66
2021/12/01 22:04:56;;;;;;;;;;;;;;;;;;5031871;28;19936;-65
2021/12/01 22:07:23;;;;;;;;;;;;;;;;;;5035892;28;19931;-65
2021/12/01 22:09:50;;;;;;;;;;;;;;;;;;5033073;28;19932;-65
2021/12/01 22:12:17;;;;;;;;;;;;;;;;;;5031929;28;20348;-69
2021/12/01 22:14:44;;;;;;;;;;;;;;;;;;5028150;28;19931;-64
2021/12/01 22:17:11;;;;;;;;;;;;;;;;;;5026867;28;19980;-68
2021/12/01 22:19:38;;;;;;;;;;;;;;;;;;5032207;28;19937;-65
2021/12/01 22:22:07;;;;;;;;;;;;;;;;;;5033083;28;19925;-65
2021/12/01 22:24:34;;;;;;;;;;;;;;;;;;5035710;28;19976;-64
2021/12/01 22:27:01;;;;;;;;;;;;;;;;;;5032457;28;19925;-67
2021/12/01 22:29:30;;;;;;;;;;;;;;;;;;5031893;28;19931;-65
2021/12/01 22:31:57;;;;;;;;;;;;;;;;;;5031176;28;19984;-65
2021/12/01 22:34:24;;;;;;;;;;;;;;;;;;5033613;28;19925;-66
2021/12/01 22:36:51;;;;;;;;;;;;;;;;;;5035341;28;20012;-65
2021/12/01 22:39:18;;;;;;;;;;;;;;;;;;5029757;28;19933;-65
2021/12/01 22:41:45;;;;;;;;;;;;;;;;;;5036836;28;19925;-64
2021/12/01 22:44:11;;;;;;;;;;;;;;;;;;5035589;28;19972;-67
2021/12/01 22:46:38;;;;;;;;;;;;;;;;;;5036905;28;19928;-65
2021/12/01 22:49:05;;;;;;;;;;;;;;;;;;5027999;28;20285;-67
2021/12/01 22:51:32;;;;;;;;;;;;;;;;;;5033551;28;19964;-72
2021/12/01 22:53:59;;;;;;;;;;;;;;;;;;5032651;28;20020;-65
2021/12/01 22:56:27;;;;;;;;;;;;;;;;;;5031713;28;20425;-65
2021/12/01 22:58:54;;;;;;;;;;;;;;;;;;5030862;28;21708;-67
2021/12/01 23:01:21;;;;;;;;;;;;;;;;;;5039874;28;19926;-64
2021/12/01 23:03:48;;;;;;;;;;;;;;;;;;5033966;28;19932;-64
2021/12/01 23:06:15;;;;;;;;;;;;;;;;;;5035100;28;20485;-65
2021/12/01 23:08:42;;;;;;;;;;;;;;;;;;5042296;28;20027;-66
2021/12/01 23:11:08;;;;;;;;;;;;;;;;;;5030277;28;20296;-65